Time;durP1;ratioP1;P1;durP2;ratioP2;P2;SDS_P1;SDS_P2;PMS_P1;PMS_P2;Temp;Humidity;BMP_temperature;BMP_pressure;BME280_temperature;BME280_humidity;BME280_pressure;Samples;Min_cycle;Max_cycle;Signal;HPM_P1;HPM_P2
2024/04/04 00:00:49;;;;;;;3.03;1.40;;;10.60;99.90;;;;;;484355;245;28649;-73
2024/04/04 00:02:50;;;;;;;1.30;1.30;;;10.60;99.90;;;;;;484327;245;28104;-74
2024/04/04 00:04:52;;;;;;;3.90;1.57;;;10.50;99.90;;;;;;484325;245;28009;-73
2024/04/04 00:06:53;;;;;;;2.37;1.50;;;10.50;99.90;;;;;;484306;245;28084;-73
2024/04/04 00:08:54;;;;;;;3.20;1.50;;;10.40;99.90;;;;;;484344;245;28074;-75
2024/04/04 00:10:58;;;;;;;2.97;1.60;;;10.40;99.90;;;;;;484352;245;28050;-73
2024/04/04 00:12:58;;;;;;;3.30;1.60;;;10.40;99.90;;;;;;484141;245;27988;-73
2024/04/04 00:14:58;;;;;;;6.13;2.00;;;10.40;99.90;;;;;;484198;245;28308;-72
2024/04/04 00:16:59;;;;;;;2.83;1.73;;;10.40;99.90;;;;;;484326;245;28184;-73
2024/04/04 00:19:00;;;;;;;2.20;1.53;;;10.40;99.90;;;;;;484336;245;28305;-74
2024/04/04 00:21:02;;;;;;;2.20;1.20;;;10.40;99.90;;;;;;484328;245;28520;-72
2024/04/04 00:23:03;;;;;;;2.00;1.30;;;10.40;99.90;;;;;;484309;245;28697;-73
2024/04/04 00:25:04;;;;;;;2.40;1.17;;;10.40;99.90;;;;;;484325;245;29716;-72
2024/04/04 00:27:06;;;;;;;3.00;1.60;;;10.40;99.90;;;;;;484346;245;28130;-72
2024/04/04 00:29:07;;;;;;;3.73;1.43;;;10.40;99.90;;;;;;484312;245;28116;-73
2024/04/04 00:31:08;;;;;;;1.87;1.23;;;10.40;99.90;;;;;;484316;245;28071;-72
2024/04/04 00:33:10;;;;;;;3.47;1.70;;;10.50;99.90;;;;;;484295;245;28091;-73
2024/04/04 00:35:10;;;;;;;3.07;1.40;;;10.50;99.90;;;;;;484293;245;28460;-74
2024/04/04 00:37:12;;;;;;;2.30;1.30;;;10.50;99.90;;;;;;484291;245;27951;-74
2024/04/04 00:39:13;;;;;;;5.80;1.60;;;10.50;99.90;;;;;;484340;245;28072;-74
2024/04/04 00:41:14;;;;;;;1.40;1.30;;;10.60;99.90;;;;;;484302;245;28063;-74
2024/04/04 00:43:15;;;;;;;1.43;1.13;;;10.60;99.90;;;;;;484281;245;27843;-74
2024/04/04 00:45:17;;;;;;;1.30;1.20;;;10.60;99.90;;;;;;484291;245;28407;-75
2024/04/04 00:47:18;;;;;;;2.73;1.50;;;10.60;99.90;;;;;;484239;245;28689;-71
2024/04/04 00:49:19;;;;;;;3.83;1.50;;;10.60;99.90;;;;;;484304;245;28489;-74
2024/04/04 00:51:20;;;;;;;2.17;1.50;;;10.60;99.90;;;;;;484307;245;28625;-72
2024/04/04 00:53:22;;;;;;;1.80;1.30;;;10.60;99.90;;;;;;484327;245;28095;-72
2024/04/04 00:55:23;;;;;;;5.57;1.87;;;10.60;99.90;;;;;;484304;245;28121;-73
2024/04/04 00:57:24;;;;;;;3.30;1.30;;;10.60;99.90;;;;;;484169;245;27826;-72
2024/04/04 00:59:25;;;;;;;2.50;1.40;;;10.50;99.90;;;;;;484267;245;28029;-72
2024/04/04 01:01:27;;;;;;;3.83;1.27;;;10.50;99.90;;;;;;484333;245;27986;-73
2024/04/04 01:03:28;;;;;;;1.20;1.20;;;10.50;99.90;;;;;;484305;245;28043;-71
2024/04/04 01:05:29;;;;;;;1.93;1.37;;;10.50;99.90;;;;;;484329;245;27990;-73
2024/04/04 01:07:30;;;;;;;2.37;1.50;;;10.50;99.90;;;;;;484308;245;28159;-72
2024/04/04 01:09:32;;;;;;;1.87;1.43;;;10.50;99.90;;;;;;484302;245;28594;-72
2024/04/04 01:11:33;;;;;;;2.70;1.27;;;10.50;99.90;;;;;;484349;245;28669;-74
2024/04/04 01:13:34;;;;;;;4.83;1.20;;;10.50;99.90;;;;;;484310;245;28533;-72
2024/04/04 01:15:35;;;;;;;1.57;1.03;;;10.40;99.90;;;;;;484305;245;28486;-72
2024/04/04 01:17:37;;;;;;;5.47;1.73;;;10.40;99.90;;;;;;484304;245;28102;-72
2024/04/04 01:19:38;;;;;;;3.80;1.43;;;10.40;99.90;;;;;;484314;245;28104;-72
2024/04/04 01:21:39;;;;;;;2.37;1.23;;;10.50;99.90;;;;;;484327;245;28087;-73
2024/04/04 01:23:41;;;;;;;4.83;1.67;;;10.50;99.90;;;;;;484299;245;28057;-72
2024/04/04 01:25:42;;;;;;;2.63;1.63;;;10.50;99.90;;;;;;484317;245;28132;-72
2024/04/04 01:27:48;;;;;;;1.67;1.57;;;10.50;99.90;;;;;;484307;245;28219;-72
2024/04/04 01:29:44;;;;;;;1.73;1.53;;;10.50;99.90;;;;;;484036;245;28096;-71
2024/04/04 01:31:45;;;;;;;4.73;1.70;;;10.50;99.90;;;;;;484319;245;27977;-72
2024/04/04 01:33:47;;;;;;;2.60;1.30;;;10.60;99.90;;;;;;484301;245;28022;-71
2024/04/04 01:35:48;;;;;;;2.43;1.60;;;10.60;99.90;;;;;;484325;245;28541;-72
2024/04/04 01:37:49;;;;;;;9.13;1.77;;;10.60;99.90;;;;;;484366;245;28499;-73
2024/04/04 01:39:50;;;;;;;7.07;1.80;;;10.60;99.90;;;;;;484348;245;28604;-72
2024/04/04 01:41:52;;;;;;;3.73;1.90;;;10.60;99.90;;;;;;484334;245;28104;-74
2024/04/04 01:43:53;;;;;;;5.20;1.90;;;10.50;99.90;;;;;;484333;245;28033;-72
2024/04/04 01:45:54;;;;;;;2.20;1.40;;;10.60;99.90;;;;;;484342;245;27986;-72
2024/04/04 01:47:55;;;;;;;4.73;2.17;;;10.60;99.90;;;;;;484357;245;28047;-74
2024/04/04 01:49:57;;;;;;;2.23;1.63;;;10.60;99.90;;;;;;484344;245;28095;-72
2024/04/04 01:51:58;;;;;;;9.73;1.90;;;10.60;99.90;;;;;;484320;245;28096;-75
2024/04/04 01:53:59;;;;;;;3.03;1.60;;;10.60;99.90;;;;;;484327;245;27936;-74
2024/04/04 01:56:00;;;;;;;2.77;1.80;;;10.60;99.90;;;;;;484331;245;28075;-73
2024/04/04 01:58:02;;;;;;;5.27;2.30;;;10.60;99.90;;;;;;484345;245;27990;-73
2024/04/04 02:00:03;;;;;;;3.33;1.90;;;10.60;99.90;;;;;;484328;245;28390;-72
2024/04/04 02:02:04;;;;;;;3.57;1.70;;;10.60;99.90;;;;;;484324;245;28454;-72
2024/04/04 02:04:06;;;;;;;3.20;1.50;;;10.70;99.90;;;;;;484360;242;29185;-72
2024/04/04 02:06:07;;;;;;;4.23;1.67;;;10.70;99.90;;;;;;484357;245;28080;-72
2024/04/04 02:08:08;;;;;;;8.17;1.60;;;10.60;99.90;;;;;;484329;245;28088;-72
2024/04/04 02:10:10;;;;;;;2.50;1.83;;;10.70;99.90;;;;;;484340;245;28003;-72
2024/04/04 02:12:11;;;;;;;6.13;2.20;;;10.60;99.90;;;;;;484268;245;28051;-73
2024/04/04 02:14:12;;;;;;;3.67;1.57;;;10.70;99.90;;;;;;484348;245;28286;-74
2024/04/04 02:16:13;;;;;;;4.93;1.67;;;10.70;99.90;;;;;;484344;245;28067;-73
2024/04/04 02:18:15;;;;;;;4.07;1.90;;;10.70;99.90;;;;;;484355;245;28044;-74
2024/04/04 02:20:16;;;;;;;5.13;2.00;;;10.60;99.90;;;;;;484332;245;28014;-74
2024/04/04 02:22:17;;;;;;;3.67;1.60;;;10.70;99.90;;;;;;484336;245;28185;-72
2024/04/04 02:24:18;;;;;;;8.80;1.90;;;10.70;99.90;;;;;;484381;245;28596;-74
2024/04/04 02:26:19;;;;;;;3.67;1.67;;;10.70;99.90;;;;;;484350;245;28528;-73
2024/04/04 02:28:21;;;;;;;8.83;1.93;;;10.80;99.90;;;;;;484359;245;28569;-73
2024/04/04 02:30:22;;;;;;;8.93;2.00;;;10.80;99.90;;;;;;484357;245;28398;-72
2024/04/04 02:32:23;;;;;;;8.10;1.80;;;10.80;99.90;;;;;;484377;245;28067;-72
2024/04/04 02:34:24;;;;;;;6.60;2.00;;;10.80;99.90;;;;;;484370;245;27943;-73
2024/04/04 02:36:28;;;;;;;5.00;1.57;;;10.80;99.90;;;;;;484363;245;28023;-72
2024/04/04 02:38:27;;;;;;;5.53;1.83;;;10.80;99.90;;;;;;484186;245;28089;-73
2024/04/04 02:40:28;;;;;;;8.30;1.97;;;10.90;99.90;;;;;;484344;245;28183;-72
2024/04/04 02:42:29;;;;;;;8.30;1.80;;;10.80;99.90;;;;;;484335;245;27844;-73
2024/04/04 02:44:31;;;;;;;6.73;1.80;;;10.90;99.90;;;;;;484339;245;28174;-73
2024/04/04 02:46:32;;;;;;;6.67;2.10;;;10.90;99.90;;;;;;484322;245;28177;-74
2024/04/04 02:48:33;;;;;;;7.67;2.17;;;10.90;99.90;;;;;;484325;245;28210;-73
2024/04/04 02:50:34;;;;;;;4.07;1.80;;;10.80;99.90;;;;;;484349;245;28509;-72
2024/04/04 02:52:36;;;;;;;8.93;1.70;;;10.90;99.90;;;;;;484346;245;28481;-73
2024/04/04 02:54:37;;;;;;;6.07;1.83;;;10.90;99.90;;;;;;484319;245;28484;-73
2024/04/04 02:56:38;;;;;;;5.40;1.97;;;10.90;99.90;;;;;;484303;245;28213;-72
2024/04/04 02:58:39;;;;;;;3.57;1.70;;;10.80;99.90;;;;;;484302;245;28091;-73
2024/04/04 03:00:41;;;;;;;2.93;1.70;;;10.90;99.90;;;;;;484358;245;27971;-74
2024/04/04 03:02:42;;;;;;;7.53;2.20;;;10.90;99.90;;;;;;484269;245;28190;-73
2024/04/04 03:04:43;;;;;;;8.60;2.33;;;10.90;99.90;;;;;;484232;245;28309;-73
2024/04/04 03:06:44;;;;;;;4.90;1.63;;;10.90;99.90;;;;;;484196;245;28078;-73
2024/04/04 03:08:46;;;;;;;8.77;2.20;;;10.90;99.90;;;;;;484324;245;28155;-73
2024/04/04 03:10:47;;;;;;;2.90;1.30;;;10.90;99.90;;;;;;484244;245;28087;-74
2024/04/04 03:12:49;;;;;;;7.60;2.00;;;10.90;99.90;;;;;;484304;245;28165;-72
2024/04/04 03:14:49;;;;;;;5.87;1.93;;;10.80;99.90;;;;;;484249;245;28659;-72
2024/04/04 03:16:51;;;;;;;6.90;1.90;;;10.90;99.90;;;;;;484295;245;28895;-73
2024/04/04 03:18:52;;;;;;;18.30;2.27;;;10.90;99.90;;;;;;484318;245;28720;-72
2024/04/04 03:20:53;;;;;;;7.20;2.17;;;10.90;99.90;;;;;;484317;245;28295;-73
2024/04/04 03:22:56;;;;;;;10.93;2.40;;;10.90;99.90;;;;;;484341;245;28379;-72
2024/04/04 03:24:56;;;;;;;8.90;2.83;;;10.90;99.90;;;;;;484195;245;28326;-73
2024/04/04 03:26:57;;;;;;;9.80;2.07;;;10.90;99.90;;;;;;484311;245;28049;-73
2024/04/04 03:28:58;;;;;;;7.17;2.63;;;10.90;99.90;;;;;;484333;245;27858;-72
2024/04/04 03:30:59;;;;;;;5.97;2.83;;;10.90;99.90;;;;;;484329;245;28059;-74
2024/04/04 03:33:01;;;;;;;9.40;2.40;;;10.90;99.90;;;;;;484319;245;28098;-72
2024/04/04 03:35:02;;;;;;;15.47;2.90;;;10.90;99.90;;;;;;484290;245;28576;-73
2024/04/04 03:37:03;;;;;;;9.00;2.17;;;10.80;99.90;;;;;;484347;245;28589;-73
2024/04/04 03:39:04;;;;;;;10.37;2.53;;;10.90;99.90;;;;;;484298;245;28746;-73
2024/04/04 03:41:06;;;;;;;8.40;2.10;;;10.90;99.90;;;;;;484244;245;28234;-73
2024/04/04 03:43:07;;;;;;;7.30;2.33;;;10.90;99.90;;;;;;484307;245;28154;-73
2024/04/04 03:45:08;;;;;;;7.53;3.20;;;10.90;99.90;;;;;;484286;245;28098;-72
2024/04/04 03:47:09;;;;;;;11.07;2.37;;;10.80;99.90;;;;;;484335;245;28070;-73
2024/04/04 03:49:11;;;;;;;8.67;2.90;;;10.90;99.90;;;;;;484292;245;28180;-73
2024/04/04 03:51:12;;;;;;;15.97;3.03;;;10.90;99.90;;;;;;484321;245;28460;-72
2024/04/04 03:53:13;;;;;;;11.83;3.20;;;10.90;99.90;;;;;;484314;245;28295;-73
2024/04/04 03:55:14;;;;;;;11.10;2.80;;;10.90;99.90;;;;;;484342;245;28408;-71
2024/04/04 03:57:16;;;;;;;16.93;2.57;;;10.90;99.90;;;;;;484328;245;28686;-72
2024/04/04 03:59:17;;;;;;;11.60;2.70;;;10.90;99.90;;;;;;484290;245;28520;-72
2024/04/04 04:01:19;;;;;;;15.60;2.57;;;;;;;;;;484312;245;28201;-71
2024/04/04 04:03:21;;;;;;;16.63;2.60;;;10.90;99.90;;;;;;484328;245;27272;-72
2024/04/04 04:05:22;;;;;;;9.60;2.17;;;10.90;99.90;;;;;;484268;245;28455;-72
2024/04/04 04:07:23;;;;;;;6.73;2.70;;;10.90;99.90;;;;;;484308;245;28467;-72
2024/04/04 04:09:24;;;;;;;7.77;2.40;;;10.90;99.90;;;;;;484311;245;28495;-72
2024/04/04 04:11:26;;;;;;;12.33;3.03;;;10.90;99.90;;;;;;484344;245;28562;-73
2024/04/04 04:13:27;;;;;;;15.13;3.03;;;10.90;99.90;;;;;;484336;245;28180;-72
2024/04/04 04:15:28;;;;;;;7.90;2.77;;;10.90;99.90;;;;;;484315;245;28261;-72
2024/04/04 04:17:30;;;;;;;3.40;2.10;;;10.90;99.90;;;;;;484303;245;28063;-72
2024/04/04 04:19:31;;;;;;;6.70;2.30;;;10.90;99.90;;;;;;484330;245;28069;-73
2024/04/04 04:21:32;;;;;;;9.03;2.70;;;10.90;99.90;;;;;;484353;245;28117;-74
2024/04/04 04:23:33;;;;;;;10.50;2.80;;;10.90;99.90;;;;;;484311;245;28191;-73
2024/04/04 04:25:34;;;;;;;15.60;2.87;;;10.90;99.90;;;;;;484311;245;28289;-73
2024/04/04 04:27:36;;;;;;;9.13;2.57;;;10.90;99.90;;;;;;484318;245;28800;-74
2024/04/04 04:29:37;;;;;;;13.67;2.67;;;10.90;99.90;;;;;;484329;245;28455;-72
2024/04/04 04:31:38;;;;;;;9.13;2.60;;;10.90;99.90;;;;;;484318;245;28473;-72
2024/04/04 04:33:39;;;;;;;4.00;2.30;;;10.90;99.90;;;;;;484310;245;28060;-74
2024/04/04 04:35:41;;;;;;;6.07;2.50;;;10.90;99.90;;;;;;484296;245;28063;-72
2024/04/04 04:37:42;;;;;;;6.23;3.30;;;10.90;99.90;;;;;;484313;245;28315;-73
2024/04/04 04:39:43;;;;;;;16.47;2.87;;;10.90;99.90;;;;;;484278;245;27995;-72
2024/04/04 04:41:44;;;;;;;9.40;2.87;;;10.90;99.90;;;;;;484297;245;28098;-72
2024/04/04 04:43:46;;;;;;;9.40;4.23;;;10.90;99.90;;;;;;484256;245;27983;-71
2024/04/04 04:45:47;;;;;;;10.00;2.50;;;10.90;99.90;;;;;;484303;245;28067;-72
2024/04/04 04:47:48;;;;;;;8.67;2.70;;;10.90;99.90;;;;;;484325;245;28415;-73
2024/04/04 04:49:49;;;;;;;11.97;2.70;;;10.90;99.90;;;;;;484319;245;28306;-72
2024/04/04 04:51:51;;;;;;;12.47;3.37;;;11.00;99.90;;;;;;484296;245;28597;-72
2024/04/04 04:53:52;;;;;;;10.30;2.77;;;11.00;99.90;;;;;;484337;245;28823;-73
2024/04/04 04:55:53;;;;;;;8.70;2.40;;;10.90;99.90;;;;;;484316;245;28069;-72
2024/04/04 04:57:54;;;;;;;8.30;3.17;;;11.00;99.90;;;;;;484320;242;28198;-73
2024/04/04 04:59:58;;;;;;;11.20;2.57;;;10.90;99.90;;;;;;484289;245;28069;-72
2024/04/04 05:01:57;;;;;;;8.10;2.37;;;10.90;99.90;;;;;;484203;245;28104;-72
2024/04/04 05:03:58;;;;;;;11.63;2.60;;;11.00;99.90;;;;;;484355;245;28379;-72
2024/04/04 05:05:59;;;;;;;14.70;2.07;;;11.00;99.90;;;;;;484354;245;28179;-72
2024/04/04 05:08:02;;;;;;;13.60;2.67;;;11.00;99.90;;;;;;484338;245;28203;-72
2024/04/04 05:10:03;;;;;;;15.13;2.80;;;11.00;99.90;;;;;;484342;245;29599;-72
2024/04/04 05:12:03;;;;;;;4.90;2.50;;;10.90;99.90;;;;;;484334;245;28457;-72
2024/04/04 05:14:04;;;;;;;13.60;2.80;;;11.00;99.90;;;;;;484370;245;28702;-72
2024/04/04 05:16:06;;;;;;;17.57;3.20;;;11.00;99.90;;;;;;484378;245;28222;-72
2024/04/04 05:18:07;;;;;;;11.90;2.83;;;11.00;99.90;;;;;;484355;245;28262;-72
2024/04/04 05:20:11;;;;;;;14.83;2.80;;;11.00;99.90;;;;;;484391;245;28363;-72
2024/04/04 05:22:09;;;;;;;8.80;2.40;;;11.00;99.90;;;;;;484236;245;28099;-72
2024/04/04 05:24:11;;;;;;;8.63;2.33;;;11.00;99.90;;;;;;484394;245;28251;-74
2024/04/04 05:26:12;;;;;;;10.10;2.50;;;11.00;99.90;;;;;;484367;245;28082;-72
2024/04/04 05:28:13;;;;;;;8.50;2.30;;;11.00;99.90;;;;;;484333;245;27985;-72
2024/04/04 05:30:15;;;;;;;11.20;2.50;;;11.00;99.90;;;;;;484342;245;28628;-72
2024/04/04 05:32:16;;;;;;;8.33;2.60;;;11.00;99.90;;;;;;484340;245;28477;-72
2024/04/04 05:34:17;;;;;;;5.90;2.40;;;11.00;99.90;;;;;;484339;245;28607;-73
2024/04/04 05:36:18;;;;;;;8.93;2.60;;;11.00;99.90;;;;;;484282;245;27996;-72
2024/04/04 05:38:20;;;;;;;8.00;2.33;;;11.10;99.90;;;;;;484334;245;28090;-74
2024/04/04 05:40:21;;;;;;;8.37;2.37;;;11.10;99.90;;;;;;484357;245;28131;-74
2024/04/04 05:42:22;;;;;;;7.63;1.97;;;11.10;99.90;;;;;;484348;245;28077;-74
2024/04/04 05:44:23;;;;;;;9.97;2.60;;;11.10;99.90;;;;;;484302;245;28106;-72
2024/04/04 05:46:25;;;;;;;12.30;3.37;;;11.10;99.90;;;;;;484328;245;28129;-72
2024/04/04 05:48:26;;;;;;;9.73;2.40;;;11.10;99.90;;;;;;484365;245;28207;-72
2024/04/04 05:50:27;;;;;;;5.40;2.50;;;11.10;99.90;;;;;;484324;245;28121;-73
2024/04/04 05:52:28;;;;;;;14.70;2.30;;;11.10;99.90;;;;;;484296;245;28215;-72
2024/04/04 05:54:30;;;;;;;8.33;2.40;;;11.10;99.90;;;;;;484341;245;28619;-73
2024/04/04 05:56:31;;;;;;;7.37;2.40;;;11.10;99.90;;;;;;484353;245;28725;-75
2024/04/04 05:58:32;;;;;;;7.13;2.20;;;11.10;99.90;;;;;;484343;245;28468;-74
2024/04/04 06:00:33;;;;;;;10.97;2.80;;;11.10;99.90;;;;;;484329;245;28092;-72
2024/04/04 06:02:35;;;;;;;11.87;2.50;;;11.10;99.90;;;;;;484318;245;28202;-72
2024/04/04 06:04:36;;;;;;;8.90;2.40;;;11.10;99.90;;;;;;484329;245;28197;-72
2024/04/04 06:06:37;;;;;;;14.33;2.30;;;11.10;99.90;;;;;;484347;245;28343;-72
2024/04/04 06:08:38;;;;;;;8.47;2.10;;;11.10;99.90;;;;;;484328;245;28107;-73
2024/04/04 06:10:40;;;;;;;13.07;2.40;;;11.10;99.90;;;;;;484309;245;28309;-72
2024/04/04 06:12:41;;;;;;;10.00;2.40;;;11.10;99.90;;;;;;484327;245;28297;-75
2024/04/04 06:14:42;;;;;;;21.50;3.67;;;11.10;99.90;;;;;;484323;245;28718;-72
2024/04/04 06:16:43;;;;;;;8.87;3.20;;;11.20;99.90;;;;;;484323;245;28562;-74
2024/04/04 06:18:45;;;;;;;4.80;2.13;;;11.20;99.90;;;;;;484249;245;28511;-73
2024/04/04 06:20:46;;;;;;;9.27;2.80;;;11.20;99.90;;;;;;484245;245;28223;-73
2024/04/04 06:22:47;;;;;;;11.30;2.80;;;11.20;99.90;;;;;;484340;245;28416;-74
2024/04/04 06:24:48;;;;;;;13.57;2.60;;;11.20;99.90;;;;;;484332;245;28178;-74
2024/04/04 06:26:50;;;;;;;7.53;2.60;;;11.20;99.90;;;;;;484329;245;28303;-72
2024/04/04 06:28:52;;;;;;;8.20;2.20;;;11.20;99.90;;;;;;484318;245;27958;-72
2024/04/04 06:30:52;;;;;;;18.80;2.83;;;11.20;99.90;;;;;;484246;245;28210;-72
2024/04/04 06:32:53;;;;;;;11.33;2.53;;;11.20;99.90;;;;;;484329;245;28579;-74
2024/04/04 06:34:55;;;;;;;8.70;2.60;;;11.20;99.90;;;;;;484291;245;28364;-72
2024/04/04 06:36:56;;;;;;;12.47;2.50;;;11.20;99.90;;;;;;484343;245;28745;-73
2024/04/04 06:39:02;;;;;;;11.43;3.10;;;11.20;99.90;;;;;;484314;245;28615;-72
2024/04/04 06:41:00;;;;;;;11.90;2.80;;;;;;;;;;483956;245;28279;-74
2024/04/04 06:43:01;;;;;;;9.47;2.73;;;11.20;99.90;;;;;;484342;245;27195;-72
2024/04/04 06:45:02;;;;;;;11.03;2.83;;;11.30;99.90;;;;;;484332;245;28098;-72
2024/04/04 06:47:03;;;;;;;6.83;2.80;;;11.30;99.90;;;;;;484306;245;28798;-72
2024/04/04 06:49:05;;;;;;;10.67;2.90;;;11.30;99.90;;;;;;484323;245;28663;-74
2024/04/04 06:51:06;;;;;;;7.87;2.83;;;11.30;99.90;;;;;;484337;245;28575;-73
2024/04/04 06:53:07;;;;;;;7.27;2.67;;;11.30;99.90;;;;;;484332;245;28179;-72
2024/04/04 06:55:08;;;;;;;13.10;3.43;;;11.40;99.90;;;;;;484335;245;28138;-72
2024/04/04 06:57:10;;;;;;;10.67;2.50;;;11.40;99.90;;;;;;484348;245;28350;-72
2024/04/04 06:59:11;;;;;;;7.50;2.60;;;11.40;99.90;;;;;;484327;245;28368;-72
2024/04/04 07:01:12;;;;;;;12.57;2.47;;;11.40;99.90;;;;;;484336;245;28416;-75
2024/04/04 07:03:13;;;;;;;11.47;2.20;;;11.40;99.90;;;;;;484331;245;28313;-74
2024/04/04 07:05:15;;;;;;;20.33;3.20;;;11.40;99.90;;;;;;484325;245;28185;-73
2024/04/04 07:07:16;;;;;;;12.97;2.90;;;11.40;99.90;;;;;;484334;242;28733;-73
2024/04/04 07:09:17;;;;;;;9.77;3.33;;;11.30;99.90;;;;;;484351;245;28547;-72
2024/04/04 07:11:18;;;;;;;11.73;2.67;;;11.30;99.90;;;;;;484319;245;28834;-72
2024/04/04 07:13:20;;;;;;;12.57;2.53;;;11.40;99.90;;;;;;484313;245;28258;-72
2024/04/04 07:15:21;;;;;;;8.43;2.87;;;11.50;99.90;;;;;;484323;245;28235;-75
2024/04/04 07:17:22;;;;;;;7.47;2.60;;;11.50;99.90;;;;;;484332;245;28366;-74
2024/04/04 07:19:23;;;;;;;12.80;3.50;;;11.50;99.90;;;;;;484305;245;28139;-74
2024/04/04 07:21:25;;;;;;;15.30;3.10;;;11.50;99.90;;;;;;484321;245;28344;-74
2024/04/04 07:23:26;;;;;;;9.00;2.67;;;11.50;99.90;;;;;;484330;245;28278;-74
2024/04/04 07:25:27;;;;;;;17.90;2.87;;;11.50;99.90;;;;;;484337;245;28344;-74
2024/04/04 07:27:28;;;;;;;14.03;3.00;;;11.50;99.90;;;;;;484328;245;28567;-75
2024/04/04 07:29:30;;;;;;;8.70;2.40;;;11.50;99.90;;;;;;484332;245;28732;-75
2024/04/04 07:31:31;;;;;;;7.20;2.67;;;11.50;99.90;;;;;;484296;245;28927;-73
2024/04/04 07:33:32;;;;;;;6.80;2.80;;;11.50;99.90;;;;;;484291;245;28334;-73
2024/04/04 07:35:33;;;;;;;10.07;2.50;;;11.50;99.90;;;;;;484341;245;28228;-74
2024/04/04 07:37:35;;;;;;;12.67;3.17;;;11.40;99.90;;;;;;484343;245;28347;-73
2024/04/04 07:39:36;;;;;;;9.23;3.00;;;11.50;99.90;;;;;;484325;245;28438;-74
2024/04/04 07:41:37;;;;;;;6.80;2.30;;;11.50;99.90;;;;;;484343;245;28201;-75
2024/04/04 07:43:39;;;;;;;11.37;2.53;;;11.60;99.90;;;;;;484359;245;28522;-73
2024/04/04 07:45:40;;;;;;;5.37;1.97;;;11.60;99.90;;;;;;484347;245;28363;-72
2024/04/04 07:47:41;;;;;;;8.93;2.37;;;11.60;99.90;;;;;;484318;245;28602;-72
2024/04/04 07:49:43;;;;;;;9.37;3.30;;;11.60;99.90;;;;;;484362;245;28844;-72
2024/04/04 07:51:43;;;;;;;7.00;2.37;;;11.50;99.90;;;;;;484360;245;28672;-72
2024/04/04 07:53:45;;;;;;;6.10;2.27;;;11.50;99.90;;;;;;484364;245;28775;-73
2024/04/04 07:55:46;;;;;;;10.23;2.40;;;11.50;99.90;;;;;;484366;245;28257;-73
2024/04/04 07:57:47;;;;;;;7.53;2.33;;;11.50;99.90;;;;;;484353;245;28365;-72
2024/04/04 07:59:48;;;;;;;5.70;2.60;;;11.50;99.90;;;;;;484308;245;28217;-72
2024/04/04 08:01:50;;;;;;;12.73;2.83;;;11.50;99.90;;;;;;484366;245;28178;-73
2024/04/04 08:03:51;;;;;;;7.63;2.30;;;11.50;99.90;;;;;;484309;245;28462;-73
2024/04/04 08:05:52;;;;;;;6.60;1.93;;;11.60;99.90;;;;;;484346;245;28285;-72
2024/04/04 08:07:53;;;;;;;8.00;3.83;;;11.50;99.90;;;;;;484331;245;28426;-74
2024/04/04 08:09:55;;;;;;;7.73;2.23;;;11.50;99.90;;;;;;484357;245;28564;-75
2024/04/04 08:11:56;;;;;;;8.90;2.40;;;11.40;99.90;;;;;;484353;245;28661;-74
2024/04/04 08:13:57;;;;;;;11.40;2.47;;;11.40;99.90;;;;;;484327;245;28841;-72
2024/04/04 08:15:58;;;;;;;7.40;2.23;;;11.40;99.90;;;;;;484300;245;28797;-74
2024/04/04 08:18:00;;;;;;;14.27;2.30;;;11.40;99.90;;;;;;484304;245;28291;-74
2024/04/04 08:20:02;;;;;;;7.13;2.50;;;11.40;99.90;;;;;;484334;245;28355;-75
2024/04/04 08:22:02;;;;;;;8.70;2.37;;;11.40;99.90;;;;;;484275;245;28412;-74
2024/04/04 08:24:04;;;;;;;6.77;2.00;;;11.40;99.90;;;;;;484312;245;28348;-74
2024/04/04 08:26:05;;;;;;;13.43;2.47;;;11.40;99.90;;;;;;484296;245;28294;-74
2024/04/04 08:28:06;;;;;;;8.50;2.50;;;11.40;99.90;;;;;;484349;245;28262;-74
2024/04/04 08:30:08;;;;;;;10.33;2.53;;;11.40;99.90;;;;;;484269;245;28248;-75
2024/04/04 08:32:08;;;;;;;6.70;2.63;;;11.40;99.90;;;;;;484282;245;28196;-74
2024/04/04 08:34:10;;;;;;;6.47;3.13;;;11.30;99.90;;;;;;484306;245;28706;-75
2024/04/04 08:36:11;;;;;;;8.47;2.30;;;11.30;99.90;;;;;;484312;245;28873;-74
2024/04/04 08:38:13;;;;;;;7.07;2.20;;;11.30;99.90;;;;;;484334;245;28619;-75
2024/04/04 08:40:14;;;;;;;6.00;2.30;;;11.30;99.90;;;;;;484301;245;28316;-73
2024/04/04 08:42:15;;;;;;;6.73;2.37;;;11.30;99.90;;;;;;484311;245;28299;-72
2024/04/04 08:44:17;;;;;;;5.83;1.90;;;11.40;99.90;;;;;;484322;245;28458;-73
2024/04/04 08:46:17;;;;;;;7.13;2.63;;;11.40;99.90;;;;;;484379;245;28232;-74
2024/04/04 08:48:19;;;;;;;5.60;2.00;;;11.40;99.90;;;;;;484350;245;28178;-74
2024/04/04 08:50:20;;;;;;;6.10;2.10;;;11.30;99.90;;;;;;484355;245;28346;-74
2024/04/04 08:52:21;;;;;;;6.80;1.90;;;11.40;99.90;;;;;;484322;245;28265;-72
2024/04/04 08:54:22;;;;;;;5.47;2.07;;;11.40;99.90;;;;;;484357;245;28320;-72
2024/04/04 08:56:23;;;;;;;9.80;2.90;;;11.40;99.90;;;;;;484325;245;28371;-75
2024/04/04 08:58:25;;;;;;;6.83;2.10;;;11.50;99.90;;;;;;484355;245;28965;-74
2024/04/04 09:00:26;;;;;;;10.17;3.50;;;11.50;99.90;;;;;;484331;245;28953;-73
2024/04/04 09:02:27;;;;;;;7.03;2.40;;;11.70;99.90;;;;;;484318;245;30207;-74
2024/04/04 09:04:30;;;;;;;11.03;2.40;;;11.60;99.90;;;;;;484360;245;28086;-73
2024/04/04 09:06:30;;;;;;;5.50;2.23;;;11.50;99.90;;;;;;484303;245;28433;-74
2024/04/04 09:08:31;;;;;;;8.17;2.27;;;11.50;99.90;;;;;;484326;245;28269;-74
2024/04/04 09:10:32;;;;;;;6.40;2.10;;;11.60;99.90;;;;;;484298;245;28498;-74
2024/04/04 09:12:36;;;;;;;8.80;2.37;;;11.60;99.90;;;;;;484360;245;28800;-72
2024/04/04 09:14:37;;;;;;;8.00;2.30;;;11.60;99.90;;;;;;484349;245;27478;-72
2024/04/04 09:16:38;;;;;;;11.03;2.80;;;11.60;99.90;;;;;;484322;245;29110;-72
2024/04/04 09:18:40;;;;;;;8.37;2.23;;;11.60;99.90;;;;;;484310;245;28923;-73
2024/04/04 09:20:41;;;;;;;14.43;3.07;;;11.60;99.90;;;;;;484329;245;28065;-73
2024/04/04 09:22:42;;;;;;;8.73;2.40;;;11.60;99.90;;;;;;484349;245;28557;-75
2024/04/04 09:24:43;;;;;;;6.63;2.00;;;11.50;99.90;;;;;;484348;245;28482;-72
2024/04/04 09:26:46;;;;;;;8.07;2.43;;;11.40;99.90;;;;;;484365;245;28229;-72
2024/04/04 09:28:46;;;;;;;6.03;2.33;;;11.40;99.90;;;;;;484249;245;28783;-78
2024/04/04 09:30:49;;;;;;;5.97;2.10;;;11.30;99.90;;;;;;484361;245;28941;-73
2024/04/04 09:32:48;;;;;;;13.10;2.70;;;11.30;99.90;;;;;;484208;245;28238;-72
2024/04/04 09:34:50;;;;;;;8.27;1.80;;;11.30;99.90;;;;;;484357;245;28430;-72
2024/04/04 09:36:52;;;;;;;8.30;2.50;;;11.40;99.90;;;;;;484309;245;29007;-72
2024/04/04 09:38:52;;;;;;;3.50;1.90;;;11.40;99.90;;;;;;484293;245;28796;-73
2024/04/04 09:40:53;;;;;;;11.30;2.70;;;11.40;99.90;;;;;;484335;245;28637;-72
2024/04/04 09:42:54;;;;;;;10.13;2.30;;;11.40;99.90;;;;;;484336;245;28453;-73
2024/04/04 09:44:56;;;;;;;6.00;2.03;;;11.50;99.90;;;;;;484326;245;28301;-73
2024/04/04 09:46:57;;;;;;;6.23;1.87;;;11.50;99.90;;;;;;484344;245;28304;-74
2024/04/04 09:48:58;;;;;;;7.77;2.40;;;11.60;99.90;;;;;;484346;245;28554;-75
2024/04/04 09:50:59;;;;;;;6.23;2.40;;;11.70;99.90;;;;;;484354;245;28138;-75
2024/04/04 09:53:02;;;;;;;11.33;2.87;;;11.70;99.90;;;;;;484309;245;28548;-74
2024/04/04 09:55:02;;;;;;;7.43;2.27;;;11.50;99.90;;;;;;484220;245;28310;-72
2024/04/04 09:57:04;;;;;;;4.53;2.63;;;11.50;99.90;;;;;;484338;245;28601;-72
2024/04/04 09:59:04;;;;;;;6.00;2.30;;;11.50;99.90;;;;;;484331;245;28966;-73
2024/04/04 10:01:06;;;;;;;5.13;1.90;;;11.60;99.90;;;;;;484309;245;29347;-74
2024/04/04 10:03:07;;;;;;;10.03;2.30;;;11.60;99.90;;;;;;484307;245;29014;-74
2024/04/04 10:05:08;;;;;;;7.20;2.07;;;11.60;99.90;;;;;;484364;245;28255;-74
2024/04/04 10:07:10;;;;;;;6.30;2.03;;;11.70;99.90;;;;;;484344;245;28158;-73
2024/04/04 10:09:11;;;;;;;7.30;2.20;;;11.60;99.90;;;;;;484132;245;28841;-73
2024/04/04 10:11:12;;;;;;;8.23;2.57;;;11.50;99.90;;;;;;484264;245;28432;-72
2024/04/04 10:13:13;;;;;;;5.33;1.80;;;11.60;99.90;;;;;;484324;245;28420;-72
2024/04/04 10:15:15;;;;;;;6.07;2.13;;;11.80;99.90;;;;;;484327;245;28084;-75
2024/04/04 10:17:16;;;;;;;4.77;2.30;;;11.80;99.90;;;;;;484337;245;28817;-74
2024/04/04 10:19:20;;;;;;;8.50;2.40;;;11.80;99.90;;;;;;484348;245;28994;-74
2024/04/04 10:21:18;;;;;;;11.23;2.60;;;11.90;99.90;;;;;;484196;245;28567;-74
2024/04/04 10:23:20;;;;;;;6.30;2.03;;;12.00;99.90;;;;;;484334;245;28561;-74
2024/04/04 10:25:21;;;;;;;3.50;1.83;;;12.10;99.90;;;;;;484216;245;28443;-74
2024/04/04 10:27:22;;;;;;;9.40;2.87;;;12.20;99.90;;;;;;484338;245;28408;-75
2024/04/04 10:29:23;;;;;;;5.53;2.30;;;12.30;99.90;;;;;;484318;245;28948;-75